Elderton, PA (15736)

4:48 PM EDT on May 05, 2015 (GMT -0400)
Rural Valley | | Change Station
CLOSE
Current Station
Personal Weather Station
Location: Rural Valley, PA
Elevation: 1133 ft
Nearby Weather Stations

Elev 1133 ft 40.76 °N, 79.32 °W | Updated 4 seconds ago

Overcast
Overcast
75.9 °F
Feels Like 77 °F
N
3.1
Wind Variable Wind from South
Gusts 8.3 mph

Today
High -- | Low -- °F
--% Chance of Precip.
Yesterday
High -- | Low -- °F
Precip. -- in
6:11 AM 8:17 PM
Full, 97% visible
Pressure 30.27 in
Visibility 10.0 miles
Clouds Scattered Clouds 3600 ft
Mostly Cloudy 4500 ft
Overcast 10000 ft
Heat Index 77 °F
Dew Point 68 °F
Humidity 76%
Rainfall 0.05 in
Snow Depth Not available.
UV 2 out of 12
Pollen 5.80 out of 12
Air Quality Not available.
Flu Activity Sporadic
METAR KIDI 052035Z AUTO 29005KT 10SM SCT036 BKN045 OVC100 22/16 A3027 RMK A01

More Conditions Fewer Conditions

Pressure 30.27 in
Visibility 10.0 miles
Clouds Scattered Clouds 3600 ft
Mostly Cloudy 4500 ft
Overcast 10000 ft
Heat Index 77 °F
Dew Point 68 °F
Humidity 76%
Rainfall 0.05 in
Snow Depth Not available.
UV 2 out of 12
Pollen 5.80 out of 12
Air Quality Not available.
Flu Activity Sporadic
METAR KIDI 052035Z AUTO 29005KT 10SM SCT036 BKN045 OVC100 22/16 A3027 RMK A01

More Conditions Fewer Conditions

10-Day Weather Forecast

Almanac

Astronomy

May. 05, 2015 Rise Set
Actual Time
Civil Twilight
Nautical Twilight
Astronomical Twilight
Moon
Length of Visible Light
Length of Day
Tomorrow will be .
, % of the Moon is Illuminated

Today's Extremes

State Highs State Lows

Community

WunderPhotos

Upload Photos

1,818,975 photos uploaded!

WunderBlogs® & News

Nearby

Air Quality

  Air Quality AQ Index Pollutant
Not available.

Snow Depth

Station Depth Elevation

Earthquake Activity

City Distance Mag. Time & Date
Minimum magnitude displayed is 2.5.

Coastal Water Temperatures

Place Temperature

Stations

Nearby Weather Stations

Station Location Temp. Windchill Dew Point Humidity Wind Precip. Elev Updated Type